Time;durP1;ratioP1;P1;durP2;ratioP2;P2;SDS_P1;SDS_P2;PMS_P1;PMS_P2;Temp;Humidity;BMP_temperature;BMP_pressure;BME280_temperature;BME280_humidity;BME280_pressure;Samples;Min_cycle;Max_cycle;Signal;HPM_P1;HPM_P2
2021/09/14 00:00:58;;;;;;;;;;;10.50;95.40;;;;;;5133072;27;19926;-65
2021/09/14 00:03:24;;;;;;;;;;;10.50;95.40;;;;;;5132666;27;20006;-65
2021/09/14 00:05:52;;;;;;;;;;;10.40;95.40;;;;;;5132933;27;19915;-65
2021/09/14 00:08:18;;;;;;;;;;;10.40;95.30;;;;;;5132962;27;19919;-65
2021/09/14 00:10:44;;;;;;;;;;;10.40;95.70;;;;;;5132299;27;19964;-65
2021/09/14 00:13:09;;;;;;;;;;;10.40;95.50;;;;;;5132909;27;19922;-65
2021/09/14 00:15:35;;;;;;;;;;;10.30;95.50;;;;;;5132639;27;19922;-65
2021/09/14 00:18:01;;;;;;;;;;;10.30;95.30;;;;;;5132088;27;20423;-66
2021/09/14 00:20:27;;;;;;;;;;;10.30;95.50;;;;;;5132793;27;20014;-65
2021/09/14 00:22:53;;;;;;;;;;;10.30;95.50;;;;;;5132220;27;19915;-65
2021/09/14 00:25:20;;;;;;;;;;;10.30;95.60;;;;;;5131824;27;20209;-65
2021/09/14 00:27:46;;;;;;;;;;;10.30;95.50;;;;;;5132785;27;19922;-65
2021/09/14 00:30:12;;;;;;;;;;;10.30;95.70;;;;;;5132177;27;20009;-64
2021/09/14 00:32:38;;;;;;;;;;;10.30;95.60;;;;;;5132570;27;19920;-65
2021/09/14 00:35:03;;;;;;;;;;;10.20;95.50;;;;;;5131900;27;19961;-65
2021/09/14 00:37:29;;;;;;;;;;;10.20;95.50;;;;;;5114084;27;20425;-65
2021/09/14 00:39:55;;;;;;;;;;;10.20;95.70;;;;;;5132477;27;19958;-65
2021/09/14 00:42:20;;;;;;;;;;;10.20;95.60;;;;;;5113867;28;19916;-65
2021/09/14 00:44:46;;;;;;;;;;;10.20;95.70;;;;;;5132457;28;19965;-65
2021/09/14 00:47:12;;;;;;;;;;;10.20;95.50;;;;;;5132329;28;19923;-65
2021/09/14 00:49:37;;;;;;;;;;;10.20;95.70;;;;;;5113786;28;19915;-65
2021/09/14 00:52:03;;;;;;;;;;;10.10;95.70;;;;;;5113999;28;19938;-65
2021/09/14 00:54:29;;;;;;;;;;;10.10;95.70;;;;;;5132167;28;19916;-65
2021/09/14 00:56:56;;;;;;;;;;;10.10;95.80;;;;;;5113446;28;19969;-65
2021/09/14 00:59:22;;;;;;;;;;;10.10;95.60;;;;;;5113778;28;19939;-65
2021/09/14 01:01:47;;;;;;;;;;;10.10;95.80;;;;;;5132312;28;20022;-65
2021/09/14 01:04:13;;;;;;;;;;;10.10;95.80;;;;;;5115694;27;19919;-65
2021/09/14 01:06:39;;;;;;;;;;;10.00;95.70;;;;;;5117919;27;20404;-65
2021/09/14 01:09:04;;;;;;;;;;;10.00;95.60;;;;;;5118060;27;19978;-65
2021/09/14 01:11:30;;;;;;;;;;;10.00;95.80;;;;;;5118002;27;19938;-65
2021/09/14 01:14:14;;;;;;;;;;;10.00;95.80;;;;;;5136191;27;20371;-65
2021/09/14 01:16:41;;;;;;;;;;;10.00;95.80;;;;;;5117556;27;20321;-65
2021/09/14 01:19:07;;;;;;;;;;;10.00;95.70;;;;;;5136113;27;19972;-65
2021/09/14 01:21:33;;;;;;;;;;;10.00;95.90;;;;;;5117542;27;19984;-65
2021/09/14 01:23:59;;;;;;;;;;;10.00;95.90;;;;;;5136274;27;19915;-65
2021/09/14 01:26:27;;;;;;;;;;;10.00;95.90;;;;;;5117327;27;20048;-65
2021/09/14 01:28:53;;;;;;;;;;;10.00;95.70;;;;;;5117035;27;19916;-65
2021/09/14 01:31:19;;;;;;;;;;;10.00;95.90;;;;;;5117649;27;19916;-65
2021/09/14 01:33:48;;;;;;;;;;;9.90;95.90;;;;;;5100839;27;19916;-64
2021/09/14 01:36:15;;;;;;;;;;;9.90;95.90;;;;;;5117039;27;19922;-64
2021/09/14 01:38:41;;;;;;;;;;;9.90;95.80;;;;;;5117422;27;19916;-65
2021/09/14 01:41:07;;;;;;;;;;;9.90;95.90;;;;;;5117040;27;19926;-63
2021/09/14 01:43:35;;;;;;;;;;;9.90;95.90;;;;;;5135894;27;20094;-63
2021/09/14 01:46:00;;;;;;;;;;;9.90;95.90;;;;;;5135521;27;19918;-63
2021/09/14 01:48:28;;;;;;;;;;;9.90;95.70;;;;;;5116776;27;19919;-63
2021/09/14 01:50:54;;;;;;;;;;;9.80;95.90;;;;;;5117298;27;19916;-63
2021/09/14 01:53:23;;;;;;;;;;;9.80;96.00;;;;;;5116948;27;19916;-64
2021/09/14 01:55:49;;;;;;;;;;;9.80;95.90;;;;;;5117096;27;19916;-63
2021/09/14 01:58:16;;;;;;;;;;;9.70;95.80;;;;;;5117322;27;19915;-62
2021/09/14 02:01:06;;;;;;;;;;;9.70;95.90;;;;;;5116711;27;19919;-62
2021/09/14 02:03:36;;;;;;;;;;;9.70;96.10;;;;;;5117037;27;19920;-64
2021/09/14 02:09:07;;;;;;;;;;;9.70;95.90;;;;;;5102734;27;20424;-63
2021/09/14 02:23:43;;;;;;;;;;;9.70;96.10;;;;;;5116579;27;19919;-62
2021/09/14 03:00:54;;;;;;;;;;;9.60;96.60;;;;;;5116209;27;19920;-63
2021/09/14 03:03:21;;;;;;;;;;;9.70;96.60;;;;;;5115349;27;19915;-62
2021/09/14 03:05:47;;;;;;;;;;;9.70;96.40;;;;;;5115514;27;19942;-63
2021/09/14 03:08:12;;;;;;;;;;;9.60;96.10;;;;;;5115807;27;20359;-65
2021/09/14 03:10:38;;;;;;;;;;;9.60;96.60;;;;;;5115263;27;19915;-63
2021/09/14 03:13:04;;;;;;;;;;;9.60;96.60;;;;;;5115955;27;19915;-63
2021/09/14 03:15:30;;;;;;;;;;;9.60;96.50;;;;;;5115461;27;19922;-63
2021/09/14 03:17:57;;;;;;;;;;;9.70;96.70;;;;;;5115307;27;19919;-63
2021/09/14 03:20:23;;;;;;;;;;;9.70;96.80;;;;;;5115482;27;19919;-62
2021/09/14 03:22:49;;;;;;;;;;;9.80;96.80;;;;;;5098257;27;19943;-63
2021/09/14 03:25:14;;;;;;;;;;;9.80;96.70;;;;;;5133553;27;20013;-63
2021/09/14 03:27:40;;;;;;;;;;;9.90;96.40;;;;;;5115003;27;19923;-64
2021/09/14 03:30:08;;;;;;;;;;;9.80;96.60;;;;;;5114806;27;21415;-63
2021/09/14 03:32:37;;;;;;;;;;;9.80;96.70;;;;;;5115302;27;19915;-63
2021/09/14 03:35:03;;;;;;;;;;;9.90;96.90;;;;;;5114958;27;20371;-63
2021/09/14 03:37:29;;;;;;;;;;;10.00;96.70;;;;;;5115001;27;20355;-63
2021/09/14 03:39:55;;;;;;;;;;;10.00;96.80;;;;;;5115113;27;19926;-64
2021/09/14 03:42:20;;;;;;;;;;;10.00;96.70;;;;;;5114720;27;20294;-63
2021/09/14 03:44:46;;;;;;;;;;;10.00;96.70;;;;;;5114842;27;19919;-63
2021/09/14 03:47:12;;;;;;;;;;;10.00;96.80;;;;;;5114864;27;20002;-63
2021/09/14 03:49:39;;;;;;;;;;;10.00;97.00;;;;;;5114481;27;20327;-63
2021/09/14 03:52:05;;;;;;;;;;;10.10;97.10;;;;;;5114910;27;19911;-64
2021/09/14 03:54:31;;;;;;;;;;;10.20;97.20;;;;;;5133111;27;20006;-62
2021/09/14 03:56:57;;;;;;;;;;;10.20;97.20;;;;;;5114344;27;19919;-63
2021/09/14 03:59:24;;;;;;;;;;;10.30;97.00;;;;;;5133011;27;19920;-64
2021/09/14 04:01:54;;;;;;;;;;;10.40;97.20;;;;;;5114131;27;19951;-64
2021/09/14 04:04:26;;;;;;;;;;;10.40;97.20;;;;;;5132835;27;20006;-63
2021/09/14 04:06:58;;;;;;;;;;;10.50;97.20;;;;;;5114680;27;20310;-63
2021/09/14 04:09:25;;;;;;;;;;;10.50;97.00;;;;;;5114503;27;19938;-63
2021/09/14 04:11:55;;;;;;;;;;;10.60;97.20;;;;;;5132921;27;19927;-64
2021/09/14 04:14:26;;;;;;;;;;;10.70;97.20;;;;;;5113830;27;20006;-68
2021/09/14 04:16:52;;;;;;;;;;;10.70;97.20;;;;;;5097545;27;19954;-63
2021/09/14 04:19:17;;;;;;;;;;;10.70;96.90;;;;;;5127978;27;19955;-63
2021/09/14 04:21:43;;;;;;;;;;;10.70;97.10;;;;;;5114511;27;19922;-64
2021/09/14 04:24:13;;;;;;;;;;;10.80;97.10;;;;;;5114278;27;19942;-64
2021/09/14 04:26:39;;;;;;;;;;;10.80;97.20;;;;;;5113745;27;19916;-63
2021/09/14 04:29:05;;;;;;;;;;;10.90;97.10;;;;;;5114748;27;20436;-63
2021/09/14 04:31:31;;;;;;;;;;;10.90;97.30;;;;;;5132734;27;20250;-63
2021/09/14 04:33:57;;;;;;;;;;;10.90;97.30;;;;;;5113655;27;19916;-63
2021/09/14 04:36:22;;;;;;;;;;;11.00;97.30;;;;;;5132525;27;19994;-64
2021/09/14 04:38:48;;;;;;;;;;;11.00;97.10;;;;;;5113386;27;19918;-63
2021/09/14 04:41:14;;;;;;;;;;;11.00;97.20;;;;;;5113607;27;19962;-66
2021/09/14 04:43:40;;;;;;;;;;;11.10;97.20;;;;;;5114082;28;19916;-62
2021/09/14 04:46:07;;;;;;;;;;;11.10;97.20;;;;;;5113436;28;19915;-63
2021/09/14 04:48:33;;;;;;;;;;;11.20;97.10;;;;;;5114057;28;20287;-63
2021/09/14 04:50:59;;;;;;;;;;;11.20;97.30;;;;;;5114015;28;19912;-63
2021/09/14 04:53:24;;;;;;;;;;;11.20;97.30;;;;;;5131887;28;19923;-64
2021/09/14 04:55:52;;;;;;;;;;;11.20;97.30;;;;;;5113837;28;19986;-69
2021/09/14 04:58:17;;;;;;;;;;;11.30;97.10;;;;;;5113975;28;20015;-69
2021/09/14 05:00:43;;;;;;;;;;;11.30;97.30;;;;;;5113306;28;19927;-69
2021/09/14 05:03:13;;;;;;;;;;;11.30;97.30;;;;;;5114078;28;20002;-69
2021/09/14 05:05:39;;;;;;;;;;;11.40;97.30;;;;;;5130841;28;19998;-69
2021/09/14 05:08:05;;;;;;;;;;;11.40;97.10;;;;;;5096480;28;20041;-69
2021/09/14 05:10:30;;;;;;;;;;;11.40;97.30;;;;;;5113995;28;20005;-68
2021/09/14 05:12:56;;;;;;;;;;;11.40;97.30;;;;;;5113212;28;20383;-68
2021/09/14 05:15:22;;;;;;;;;;;11.50;97.40;;;;;;5113108;28;19916;-69
2021/09/14 05:17:59;;;;;;;;;;;11.50;97.20;;;;;;5113094;28;19920;-70
2021/09/14 05:20:38;;;;;;;;;;;11.50;97.40;;;;;;5113633;28;20355;-68
2021/09/14 05:23:14;;;;;;;;;;;11.60;97.40;;;;;;5113160;28;19915;-69
2021/09/14 05:25:40;;;;;;;;;;;11.60;97.50;;;;;;5131921;28;19915;-69
2021/09/14 05:28:07;;;;;;;;;;;11.80;97.40;;;;;;5131259;28;20437;-68
2021/09/14 05:30:33;;;;;;;;;;;11.80;97.60;;;;;;5113234;28;19915;-68
2021/09/14 05:32:59;;;;;;;;;;;11.80;97.50;;;;;;5129035;28;19950;-69
2021/09/14 05:35:28;;;;;;;;;;;11.90;97.50;;;;;;5089343;28;19915;-69
2021/09/14 05:37:54;;;;;;;;;;;12.00;97.30;;;;;;5129207;28;19919;-68
2021/09/14 05:40:21;;;;;;;;;;;12.00;97.50;;;;;;5112253;28;19919;-68
2021/09/14 05:42:47;;;;;;;;;;;12.00;97.50;;;;;;5111932;28;19915;-69
2021/09/14 05:45:13;;;;;;;;;;;12.00;97.50;;;;;;5111613;28;19922;-69
2021/09/14 05:47:40;;;;;;;;;;;12.10;97.30;;;;;;5129749;28;20005;-70
2021/09/14 05:50:06;;;;;;;;;;;12.10;97.50;;;;;;5114338;27;20002;-70
2021/09/14 05:52:31;;;;;;;;;;;12.20;97.50;;;;;;5116694;27;19972;-69
2021/09/14 05:54:57;;;;;;;;;;;12.20;97.50;;;;;;5115664;27;19971;-69
2021/09/14 05:57:23;;;;;;;;;;;12.30;97.50;;;;;;5116416;27;20273;-68
2021/09/14 05:59:51;;;;;;;;;;;12.40;97.70;;;;;;5116610;27;20322;-69
2021/09/14 06:02:19;;;;;;;;;;;12.40;97.70;;;;;;5117065;27;20010;-69
2021/09/14 06:04:45;;;;;;;;;;;12.50;97.80;;;;;;5117254;27;19955;-69
2021/09/14 06:07:11;;;;;;;;;;;12.70;97.50;;;;;;5116353;27;19962;-68
2021/09/14 06:09:37;;;;;;;;;;;12.70;97.70;;;;;;5116144;27;20328;-69
2021/09/14 06:12:03;;;;;;;;;;;12.70;97.60;;;;;;5135179;27;19966;-68
2021/09/14 06:14:31;;;;;;;;;;;12.80;97.60;;;;;;5115857;27;20018;-69
2021/09/14 06:16:58;;;;;;;;;;;12.90;97.60;;;;;;5116696;27;19926;-73
2021/09/14 06:19:27;;;;;;;;;;;12.90;97.40;;;;;;5116333;27;19926;-69
2021/09/14 06:21:53;;;;;;;;;;;13.00;97.60;;;;;;5116674;27;19923;-69
2021/09/14 06:24:19;;;;;;;;;;;13.10;97.70;;;;;;5116746;27;19915;-68
2021/09/14 06:26:44;;;;;;;;;;;13.10;97.70;;;;;;5116500;27;19919;-69
2021/09/14 06:29:15;;;;;;;;;;;13.20;97.60;;;;;;5116599;27;19921;-70
2021/09/14 06:31:42;;;;;;;;;;;13.30;97.70;;;;;;5116450;27;20407;-69
2021/09/14 06:34:26;;;;;;;;;;;13.40;97.70;;;;;;5115682;27;19935;-73
2021/09/14 06:36:51;;;;;;;;;;;13.50;97.70;;;;;;5116155;27;20387;-69
2021/09/14 06:39:17;;;;;;;;;;;13.50;97.40;;;;;;5134151;27;19934;-68
2021/09/14 06:41:43;;;;;;;;;;;13.60;97.70;;;;;;5116149;27;19943;-70
2021/09/14 06:44:09;;;;;;;;;;;13.70;97.70;;;;;;5116088;27;19943;-70
2021/09/14 06:46:50;;;;;;;;;;;13.80;97.80;;;;;;5100961;27;19915;-69
2021/09/14 06:49:16;;;;;;;;;;;14.00;97.70;;;;;;5115359;27;19948;-70
2021/09/14 06:51:42;;;;;;;;;;;14.20;97.90;;;;;;5134082;27;19927;-69
2021/09/14 06:54:07;;;;;;;;;;;14.30;97.90;;;;;;5134426;27;20012;-68
2021/09/14 06:56:33;;;;;;;;;;;14.40;97.90;;;;;;5098632;27;19964;-69
2021/09/14 06:58:58;;;;;;;;;;;14.60;97.90;;;;;;5133707;27;20276;-69
2021/09/14 07:01:24;;;;;;;;;;;14.90;98.40;;;;;;5133773;27;19920;-70
2021/09/14 07:03:53;;;;;;;;;;;15.20;98.40;;;;;;5115942;27;19915;-70
2021/09/14 07:06:18;;;;;;;;;;;15.50;98.60;;;;;;5115004;27;20303;-69
2021/09/14 07:08:44;;;;;;;;;;;15.90;98.20;;;;;;5134357;27;19969;-70
2021/09/14 07:11:09;;;;;;;;;;;16.70;99.90;;;;;;5133756;27;19929;-67
2021/09/14 07:13:35;;;;;;;;;;;17.90;99.90;;;;;;5133940;27;20019;-68
2021/09/14 07:16:01;;;;;;;;;;;18.50;98.70;;;;;;5133516;27;20045;-69
2021/09/14 07:18:26;;;;;;;;;;;18.90;97.30;;;;;;5133366;27;19941;-69
2021/09/14 07:20:52;;;;;;;;;;;19.10;97.30;;;;;;5133510;27;20367;-70
2021/09/14 07:23:19;;;;;;;;;;;19.30;96.70;;;;;;5133565;27;19923;-69
2021/09/14 07:25:45;;;;;;;;;;;19.40;96.30;;;;;;5114295;27;19915;-70
2021/09/14 07:28:11;;;;;;;;;;;19.30;95.40;;;;;;5133567;27;19919;-69
2021/09/14 07:30:37;;;;;;;;;;;19.30;95.50;;;;;;5133408;27;19915;-69
2021/09/14 07:33:03;;;;;;;;;;;19.30;95.60;;;;;;5133067;27;19923;-68
2021/09/14 07:35:30;;;;;;;;;;;19.80;96.90;;;;;;5133349;27;19912;-70
2021/09/14 07:37:59;;;;;;;;;;;21.50;95.00;;;;;;5132769;27;19924;-68
2021/09/14 07:40:24;;;;;;;;;;;21.50;94.20;;;;;;5133354;27;19980;-69
2021/09/14 07:42:50;;;;;;;;;;;21.40;92.90;;;;;;5133082;27;20227;-70
2021/09/14 07:45:15;;;;;;;;;;;22.00;94.70;;;;;;5130759;27;19975;-70
2021/09/14 07:47:41;;;;;;;;;;;24.50;95.00;;;;;;5131980;27;20287;-69
2021/09/14 07:50:07;;;;;;;;;;;25.00;94.60;;;;;;5132484;27;20295;-70
2021/09/14 07:52:33;;;;;;;;;;;27.20;92.70;;;;;;5131668;27;20489;-69
2021/09/14 07:54:59;;;;;;;;;;;28.80;89.20;;;;;;5114145;27;19925;-70
2021/09/14 07:57:24;;;;;;;;;;;30.80;80.50;;;;;;5132513;27;20319;-70
2021/09/14 07:59:50;;;;;;;;;;;30.90;80.20;;;;;;5132025;27;20013;-70
2021/09/14 08:02:15;;;;;;;;;;;31.90;75.20;;;;;;5132152;27;19916;-70
2021/09/14 08:04:41;;;;;;;;;;;32.40;69.60;;;;;;5131267;27;19911;-69
2021/09/14 08:07:06;;;;;;;;;;;33.30;63.40;;;;;;5132138;27;19918;-70
2021/09/14 08:09:32;;;;;;;;;;;33.20;63.80;;;;;;5132167;27;19916;-69
2021/09/14 08:11:58;;;;;;;;;;;33.90;62.30;;;;;;5131957;27;19921;-70
2021/09/14 08:14:24;;;;;;;;;;;34.40;58.90;;;;;;5130922;27;19912;-64
2021/09/14 08:16:49;;;;;;;;;;;34.70;56.50;;;;;;5131797;27;19962;-67
2021/09/14 08:19:15;;;;;;;;;;;34.90;54.10;;;;;;5131710;27;19919;-75
2021/09/14 08:21:41;;;;;;;;;;;35.20;53.20;;;;;;5131724;27;19919;-65
2021/09/14 08:24:09;;;;;;;;;;;35.50;52.40;;;;;;5131226;27;19916;-68
2021/09/14 08:26:34;;;;;;;;;;;36.10;50.80;;;;;;5132628;27;19916;-64
2021/09/14 08:29:00;;;;;;;;;;;36.10;47.60;;;;;;5113745;27;19919;-66
2021/09/14 08:31:26;;;;;;;;;;;36.40;48.10;;;;;;5114300;27;19916;-65
2021/09/14 08:33:51;;;;;;;;;;;37.00;47.30;;;;;;5131970;27;19957;-64
2021/09/14 08:36:17;;;;;;;;;;;37.40;46.50;;;;;;5112065;27;19948;-65
2021/09/14 08:38:44;;;;;;;;;;;37.80;44.10;;;;;;5129678;27;20344;-65
2021/09/14 08:41:13;;;;;;;;;;;37.90;43.80;;;;;;5123209;27;20296;-65
2021/09/14 08:43:41;;;;;;;;;;;38.30;44.30;;;;;;5105242;28;20006;-65
2021/09/14 08:46:07;;;;;;;;;;;38.70;43.00;;;;;;5110037;28;20456;-65
2021/09/14 08:48:34;;;;;;;;;;;39.20;42.10;;;;;;5109760;28;19998;-65
2021/09/14 08:51:00;;;;;;;;;;;39.50;42.10;;;;;;5122860;28;20014;-66
2021/09/14 08:53:25;;;;;;;;;;;40.10;41.50;;;;;;5131330;28;20370;-66
2021/09/14 08:55:51;;;;;;;;;;;40.40;40.30;;;;;;5130085;28;20347;-68
2021/09/14 08:58:16;;;;;;;;;;;40.70;39.40;;;;;;5131490;28;19950;-65
2021/09/14 09:00:42;;;;;;;;;;;40.90;39.70;;;;;;5113044;28;19969;-65
2021/09/14 09:03:08;;;;;;;;;;;41.20;38.50;;;;;;5131825;28;19927;-65
2021/09/14 09:05:35;;;;;;;;;;;41.10;37.40;;;;;;5130965;28;19998;-65
2021/09/14 09:08:02;;;;;;;;;;;41.40;37.20;;;;;;5132148;28;19916;-65
2021/09/14 09:10:28;;;;;;;;;;;41.60;37.80;;;;;;5131992;28;19937;-64
2021/09/14 09:12:54;;;;;;;;;;;41.80;36.60;;;;;;5132710;28;19915;-65
2021/09/14 09:15:21;;;;;;;;;;;41.30;34.60;;;;;;5132232;28;19948;-66
2021/09/14 09:17:46;;;;;;;;;;;40.20;33.80;;;;;;5131941;28;19923;-66
2021/09/14 09:20:12;;;;;;;;;;;40.20;34.30;;;;;;5132499;28;19916;-66
2021/09/14 09:22:38;;;;;;;;;;;40.10;34.50;;;;;;5132085;28;19930;-66
2021/09/14 09:25:04;;;;;;;;;;;40.10;35.00;;;;;;5134015;27;19916;-65
2021/09/14 09:27:31;;;;;;;;;;;41.00;35.30;;;;;;5135964;27;20274;-66
2021/09/14 09:30:01;;;;;;;;;;;41.10;35.60;;;;;;5136584;27;20394;-66
2021/09/14 09:32:41;;;;;;;;;;;41.50;34.80;;;;;;5135832;27;19916;-65
2021/09/14 09:35:06;;;;;;;;;;;42.10;35.20;;;;;;5136148;27;19915;-65
2021/09/14 09:37:32;;;;;;;;;;;42.70;33.90;;;;;;5136131;27;20398;-66
2021/09/14 09:39:57;;;;;;;;;;;42.70;34.10;;;;;;5136279;27;20299;-66
2021/09/14 09:42:28;;;;;;;;;;;43.10;33.70;;;;;;5135750;27;20323;-66
2021/09/14 09:44:55;;;;;;;;;;;43.60;34.00;;;;;;5136049;27;20295;-65
2021/09/14 09:47:21;;;;;;;;;;;43.60;32.00;;;;;;5136019;27;19919;-66
2021/09/14 09:49:47;;;;;;;;;;;43.70;32.70;;;;;;5135667;27;19912;-64
2021/09/14 09:52:13;;;;;;;;;;;43.90;32.80;;;;;;5136092;27;19923;-65
2021/09/14 09:54:39;;;;;;;;;;;44.00;32.00;;;;;;5138179;27;19911;-65
2021/09/14 09:57:07;;;;;;;;;;;42.00;31.50;;;;;;5135980;27;19916;-66
2021/09/14 09:59:33;;;;;;;;;;;41.90;31.90;;;;;;5135468;27;19920;-66
2021/09/14 10:02:18;;;;;;;;;;;40.50;31.90;;;;;;5135793;27;19915;-66
2021/09/14 10:04:48;;;;;;;;;;;40.40;33.80;;;;;;5134377;27;19915;-66
2021/09/14 10:07:14;;;;;;;;;;;40.90;31.90;;;;;;5135556;27;19922;-66
2021/09/14 10:09:50;;;;;;;;;;;40.90;32.30;;;;;;5135554;27;19915;-65
2021/09/14 10:12:31;;;;;;;;;;;40.50;31.80;;;;;;5135778;27;19961;-65
2021/09/14 10:14:57;;;;;;;;;;;39.80;31.90;;;;;;5135079;27;20010;-64
2021/09/14 10:17:23;;;;;;;;;;;37.80;31.60;;;;;;5116774;27;20010;-65
2021/09/14 10:19:49;;;;;;;;;;;37.60;32.00;;;;;;5134669;27;20002;-65
2021/09/14 10:22:21;;;;;;;;;;;36.70;32.80;;;;;;5135306;27;20387;-64
2021/09/14 10:24:52;;;;;;;;;;;36.10;33.90;;;;;;5134579;27;19965;-65
2021/09/14 10:27:18;;;;;;;;;;;34.10;33.90;;;;;;5116718;27;19964;-65
2021/09/14 10:29:44;;;;;;;;;;;33.60;34.00;;;;;;5097128;22;20016;-61
2021/09/14 10:32:13;;;;;;;;;;;32.50;35.30;;;;;;5046709;28;20388;-61
2021/09/14 10:34:50;;;;;;;;;;;30.40;36.20;;;;;;5069235;28;19916;-61
2021/09/14 10:37:16;;;;;;;;;;;29.70;36.50;;;;;;5054812;28;19921;-61
2021/09/14 10:39:43;;;;;;;;;;;28.20;38.30;;;;;;5072837;28;20018;-61
2021/09/14 10:42:21;;;;;;;;;;;27.90;38.80;;;;;;5073803;28;20330;-61
2021/09/14 10:44:47;;;;;;;;;;;27.60;40.50;;;;;;5073009;28;20000;-64
2021/09/14 10:47:14;;;;;;;;;;;27.30;41.10;;;;;;5073629;28;19956;-63
2021/09/14 10:49:43;;;;;;;;;;;26.90;41.40;;;;;;5073190;28;19944;-64
2021/09/14 10:52:09;;;;;;;;;;;26.60;42.00;;;;;;5073540;28;19917;-63
2021/09/14 10:54:49;;;;;;;;;;;26.30;42.60;;;;;;5040714;28;19999;-63
2021/09/14 10:57:16;;;;;;;;;;;26.30;44.30;;;;;;5073105;28;19917;-63
2021/09/14 10:59:49;;;;;;;;;;;26.40;44.60;;;;;;5073197;28;19957;-63
2021/09/14 11:02:15;;;;;;;;;;;26.60;45.40;;;;;;5073140;28;19916;-63
2021/09/14 11:04:41;;;;;;;;;;;26.70;45.80;;;;;;5072934;28;19946;-63
2021/09/14 11:07:11;;;;;;;;;;;26.80;45.50;;;;;;5072876;28;20007;-64
2021/09/14 11:09:36;;;;;;;;;;;26.70;45.20;;;;;;5055169;28;19917;-64
2021/09/14 11:12:02;;;;;;;;;;;26.70;46.30;;;;;;5054712;28;19924;-64
2021/09/14 11:14:37;;;;;;;;;;;26.80;46.30;;;;;;5054856;28;19997;-63
2021/09/14 11:17:02;;;;;;;;;;;26.90;46.30;;;;;;5072649;28;19985;-63
2021/09/14 11:19:28;;;;;;;;;;;27.00;46.90;;;;;;5071662;28;22259;-63
2021/09/14 11:21:54;;;;;;;;;;;27.00;46.50;;;;;;5072623;28;20296;-64
2021/09/14 11:24:20;;;;;;;;;;;27.00;46.60;;;;;;5055052;28;20403;-63
2021/09/14 11:26:45;;;;;;;;;;;26.90;47.50;;;;;;5072552;28;19916;-64
2021/09/14 11:29:12;;;;;;;;;;;26.90;47.90;;;;;;5072754;28;20406;-64
2021/09/14 11:31:38;;;;;;;;;;;27.00;48.90;;;;;;5072745;28;19913;-63
2021/09/14 11:34:05;;;;;;;;;;;27.10;48.80;;;;;;5071058;28;19959;-63
2021/09/14 11:36:31;;;;;;;;;;;27.20;48.70;;;;;;5072339;28;19917;-63
2021/09/14 11:39:01;;;;;;;;;;;26.80;47.70;;;;;;5054045;28;19923;-63
2021/09/14 11:41:34;;;;;;;;;;;26.70;48.60;;;;;;5072336;28;20023;-63
2021/09/14 11:44:00;;;;;;;;;;;26.60;48.90;;;;;;5071901;28;19916;-64
2021/09/14 11:46:26;;;;;;;;;;;26.70;49.00;;;;;;5072025;28;19925;-63
2021/09/14 11:49:02;;;;;;;;;;;26.60;47.90;;;;;;5071575;28;19943;-64
2021/09/14 11:51:28;;;;;;;;;;;26.50;48.30;;;;;;5072088;28;19916;-64
2021/09/14 11:53:54;;;;;;;;;;;26.30;48.60;;;;;;5071808;28;19916;-63
2021/09/14 11:56:24;;;;;;;;;;;25.90;48.60;;;;;;5071949;28;19966;-63
2021/09/14 11:58:49;;;;;;;;;;;25.70;48.80;;;;;;5053750;28;20009;-64
2021/09/14 12:01:16;;;;;;;;;;;25.60;49.60;;;;;;5072304;28;19924;-63
2021/09/14 12:03:46;;;;;;;;;;;25.50;50.00;;;;;;5071588;28;19917;-64
2021/09/14 12:06:12;;;;;;;;;;;25.60;49.90;;;;;;5071729;28;19921;-63
2021/09/14 12:08:42;;;;;;;;;;;25.60;50.00;;;;;;5070797;28;20383;-63
2021/09/14 12:11:08;;;;;;;;;;;25.60;50.60;;;;;;5071758;28;20389;-64
2021/09/14 12:13:38;;;;;;;;;;;25.90;50.90;;;;;;5071672;28;19916;-60
2021/09/14 12:16:05;;;;;;;;;;;26.00;50.90;;;;;;5053279;28;19924;-61
2021/09/14 12:18:31;;;;;;;;;;;25.80;49.80;;;;;;5071732;28;20361;-63
2021/09/14 12:20:56;;;;;;;;;;;25.80;50.30;;;;;;5071182;28;19928;-63
2021/09/14 12:23:22;;;;;;;;;;;25.70;50.80;;;;;;5053986;28;19934;-64
2021/09/14 12:25:49;;;;;;;;;;;25.90;51.60;;;;;;5071080;28;20371;-64
2021/09/14 12:28:14;;;;;;;;;;;26.10;51.20;;;;;;5053590;28;20360;-63
2021/09/14 12:30:40;;;;;;;;;;;26.00;50.60;;;;;;5071215;28;19923;-63
2021/09/14 12:33:06;;;;;;;;;;;25.90;51.00;;;;;;5071790;28;19917;-63
2021/09/14 12:35:32;;;;;;;;;;;25.70;50.70;;;;;;5071314;28;19955;-63
2021/09/14 12:37:58;;;;;;;;;;;24.90;50.10;;;;;;5071142;28;19952;-63
2021/09/14 12:40:23;;;;;;;;;;;24.80;50.70;;;;;;5071451;28;19958;-63
2021/09/14 12:42:49;;;;;;;;;;;24.50;51.40;;;;;;5071119;28;19924;-63
2021/09/14 12:45:14;;;;;;;;;;;24.30;51.60;;;;;;5071331;28;20395;-63
2021/09/14 12:47:40;;;;;;;;;;;24.00;52.00;;;;;;5070988;28;20278;-64
2021/09/14 12:50:06;;;;;;;;;;;24.00;52.50;;;;;;5053678;28;19916;-63
2021/09/14 12:52:31;;;;;;;;;;;23.80;53.10;;;;;;5069919;28;19923;-63
2021/09/14 12:54:57;;;;;;;;;;;23.90;54.10;;;;;;5071097;28;20380;-63
2021/09/14 12:57:23;;;;;;;;;;;24.00;54.50;;;;;;5071286;28;19924;-63
2021/09/14 12:59:48;;;;;;;;;;;24.00;53.70;;;;;;5071534;28;19921;-63
2021/09/14 13:02:14;;;;;;;;;;;24.00;54.20;;;;;;5075568;28;20261;-63
2021/09/14 13:04:39;;;;;;;;;;;24.10;54.60;;;;;;5074873;28;19939;-64
2021/09/14 13:07:05;;;;;;;;;;;24.20;55.00;;;;;;5075428;28;19931;-63
2021/09/14 13:09:30;;;;;;;;;;;24.50;55.60;;;;;;5074898;28;19918;-64
2021/09/14 13:11:56;;;;;;;;;;;24.60;55.50;;;;;;5075532;28;20436;-63
2021/09/14 13:17:05;;;;;;;;;;;24.60;55.30;;;;;;5075225;28;19923;-63
2021/09/14 13:19:31;;;;;;;;;;;24.60;55.40;;;;;;5074534;28;19916;-63
2021/09/14 13:21:57;;;;;;;;;;;24.60;55.80;;;;;;5074966;28;20200;-63
2021/09/14 13:24:22;;;;;;;;;;;24.60;55.50;;;;;;5074241;28;20395;-63
2021/09/14 13:26:48;;;;;;;;;;;24.50;55.80;;;;;;5075090;28;20011;-63
2021/09/14 13:29:13;;;;;;;;;;;24.30;54.70;;;;;;5074566;28;20350;-63
2021/09/14 13:31:39;;;;;;;;;;;24.30;55.20;;;;;;5074586;28;19923;-63
2021/09/14 13:34:04;;;;;;;;;;;23.90;55.70;;;;;;5074868;28;19959;-63
2021/09/14 13:36:30;;;;;;;;;;;23.90;56.10;;;;;;5074119;28;19916;-63
2021/09/14 13:38:55;;;;;;;;;;;23.60;55.70;;;;;;5074742;28;19916;-63
2021/09/14 13:41:27;;;;;;;;;;;23.50;56.20;;;;;;5072967;28;20016;-63
2021/09/14 13:43:54;;;;;;;;;;;23.20;56.70;;;;;;5074790;28;19959;-63
2021/09/14 13:46:20;;;;;;;;;;;23.00;56.90;;;;;;5073713;28;20380;-63
2021/09/14 13:48:45;;;;;;;;;;;22.80;57.00;;;;;;5073284;28;19961;-63
2021/09/14 13:51:12;;;;;;;;;;;22.70;57.80;;;;;;5073731;28;19927;-63
2021/09/14 13:53:42;;;;;;;;;;;22.70;58.30;;;;;;5074566;28;19913;-63
2021/09/14 13:56:28;;;;;;;;;;;22.90;58.60;;;;;;5055735;28;20007;-63
2021/09/14 13:58:54;;;;;;;;;;;22.90;58.10;;;;;;5074530;28;20055;-63
2021/09/14 14:01:20;;;;;;;;;;;22.90;58.10;;;;;;5073577;28;19921;-63
2021/09/14 14:03:46;;;;;;;;;;;22.90;58.30;;;;;;5074398;28;19917;-63
2021/09/14 14:06:13;;;;;;;;;;;22.90;58.80;;;;;;5073949;28;19951;-63
2021/09/14 14:08:39;;;;;;;;;;;22.90;58.80;;;;;;5073556;28;19969;-63
2021/09/14 14:11:05;;;;;;;;;;;22.90;59.20;;;;;;5074150;28;19924;-63
2021/09/14 14:13:30;;;;;;;;;;;23.10;59.40;;;;;;5073787;28;19916;-63
2021/09/14 14:15:56;;;;;;;;;;;23.20;59.00;;;;;;5073794;28;19923;-63
2021/09/14 14:18:21;;;;;;;;;;;23.10;58.30;;;;;;5073483;28;20419;-63
2021/09/14 14:20:47;;;;;;;;;;;23.00;58.90;;;;;;5056225;28;19916;-63
2021/09/14 14:23:13;;;;;;;;;;;23.10;59.40;;;;;;5055618;28;20422;-63
2021/09/14 14:25:39;;;;;;;;;;;23.10;59.60;;;;;;5073902;28;20344;-63
2021/09/14 14:28:04;;;;;;;;;;;22.90;58.80;;;;;;5073184;28;19939;-64
2021/09/14 14:30:30;;;;;;;;;;;22.90;58.90;;;;;;5073790;28;19923;-63
2021/09/14 14:32:55;;;;;;;;;;;22.70;59.40;;;;;;5073729;28;19921;-63
2021/09/14 14:35:24;;;;;;;;;;;22.50;59.70;;;;;;5072940;28;19962;-63
2021/09/14 14:37:50;;;;;;;;;;;22.30;60.20;;;;;;5073769;28;20338;-63
2021/09/14 14:40:15;;;;;;;;;;;22.30;60.70;;;;;;5073390;28;19920;-63
2021/09/14 14:42:41;;;;;;;;;;;22.30;61.50;;;;;;5073619;28;19962;-63
2021/09/14 14:45:07;;;;;;;;;;;22.50;61.40;;;;;;5073004;28;19920;-63
2021/09/14 14:47:32;;;;;;;;;;;22.60;61.50;;;;;;5073727;28;20007;-63
2021/09/14 14:49:58;;;;;;;;;;;22.70;61.00;;;;;;5073377;28;19916;-63
2021/09/14 14:52:23;;;;;;;;;;;22.70;61.10;;;;;;5073133;28;19917;-63
2021/09/14 14:54:49;;;;;;;;;;;22.70;61.50;;;;;;5073152;28;19923;-63
2021/09/14 14:57:14;;;;;;;;;;;22.60;61.10;;;;;;5055192;28;20003;-63
2021/09/14 14:59:40;;;;;;;;;;;22.70;61.20;;;;;;5073218;28;20361;-63
2021/09/14 15:02:05;;;;;;;;;;;22.90;62.00;;;;;;5072941;28;20062;-63
2021/09/14 15:04:31;;;;;;;;;;;22.90;61.50;;;;;;5055087;28;19920;-63
2021/09/14 15:06:57;;;;;;;;;;;22.80;61.10;;;;;;5072666;28;19924;-63
2021/09/14 15:09:22;;;;;;;;;;;22.50;60.70;;;;;;5073226;28;19927;-63